sensor_id;sensor_type;location;lat;lon;timestamp;P1;durP1;ratioP1;P2;durP2;ratioP2
6926;SDS011;3503;50.07605000;8.86719200;2022-12-07T00:02:59;14.23;;;7.50;;
6926;SDS011;3503;50.07605000;8.86719200;2022-12-07T00:18:01;13.77;;;6.60;;
6926;SDS011;3503;50.07605000;8.86719200;2022-12-07T00:33:04;15.53;;;7.30;;
6926;SDS011;3503;50.07605000;8.86719200;2022-12-07T00:48:07;15.63;;;7.77;;
6926;SDS011;3503;50.07605000;8.86719200;2022-12-07T01:03:10;18.77;;;7.43;;
6926;SDS011;3503;50.07605000;8.86719200;2022-12-07T01:18:14;18.10;;;8.30;;
6926;SDS011;3503;50.07605000;8.86719200;2022-12-07T01:33:17;24.07;;;7.50;;
6926;SDS011;3503;50.07605000;8.86719200;2022-12-07T01:48:20;15.40;;;7.57;;
6926;SDS011;3503;50.07605000;8.86719200;2022-12-07T02:03:27;15.40;;;8.07;;
6926;SDS011;3503;50.07605000;8.86719200;2022-12-07T02:18:35;16.03;;;7.93;;
6926;SDS011;3503;50.07605000;8.86719200;2022-12-07T02:33:45;17.73;;;6.03;;
6926;SDS011;3503;50.07605000;8.86719200;2022-12-07T02:48:51;13.70;;;5.00;;
6926;SDS011;3503;50.07605000;8.86719200;2022-12-07T03:03:56;13.90;;;6.57;;
6926;SDS011;3503;50.07605000;8.86719200;2022-12-07T03:19:07;11.00;;;5.50;;
6926;SDS011;3503;50.07605000;8.86719200;2022-12-07T03:34:12;11.43;;;4.90;;
6926;SDS011;3503;50.07605000;8.86719200;2022-12-07T03:49:18;11.43;;;5.53;;
6926;SDS011;3503;50.07605000;8.86719200;2022-12-07T04:04:26;9.47;;;4.83;;
6926;SDS011;3503;50.07605000;8.86719200;2022-12-07T04:19:30;9.47;;;4.87;;
6926;SDS011;3503;50.07605000;8.86719200;2022-12-07T04:34:33;9.70;;;4.40;;
6926;SDS011;3503;50.07605000;8.86719200;2022-12-07T04:49:36;13.60;;;5.17;;
6926;SDS011;3503;50.07605000;8.86719200;2022-12-07T05:04:39;11.37;;;5.80;;
6926;SDS011;3503;50.07605000;8.86719200;2022-12-07T05:19:42;10.70;;;4.30;;
6926;SDS011;3503;50.07605000;8.86719200;2022-12-07T05:34:45;9.40;;;4.87;;
6926;SDS011;3503;50.07605000;8.86719200;2022-12-07T05:49:48;11.63;;;5.07;;
6926;SDS011;3503;50.07605000;8.86719200;2022-12-07T06:04:51;9.20;;;4.80;;
6926;SDS011;3503;50.07605000;8.86719200;2022-12-07T06:19:53;13.40;;;5.30;;
6926;SDS011;3503;50.07605000;8.86719200;2022-12-07T06:34:56;13.33;;;6.23;;
6926;SDS011;3503;50.07605000;8.86719200;2022-12-07T06:49:59;12.27;;;5.80;;
6926;SDS011;3503;50.07605000;8.86719200;2022-12-07T07:05:02;9.53;;;4.90;;
6926;SDS011;3503;50.07605000;8.86719200;2022-12-07T07:20:06;13.40;;;6.80;;
6926;SDS011;3503;50.07605000;8.86719200;2022-12-07T07:35:09;11.97;;;5.60;;
6926;SDS011;3503;50.07605000;8.86719200;2022-12-07T07:50:12;14.00;;;6.20;;
6926;SDS011;3503;50.07605000;8.86719200;2022-12-07T08:05:18;12.83;;;5.90;;
6926;SDS011;3503;50.07605000;8.86719200;2022-12-07T08:20:21;10.60;;;5.30;;
6926;SDS011;3503;50.07605000;8.86719200;2022-12-07T08:35:24;12.00;;;5.90;;
6926;SDS011;3503;50.07605000;8.86719200;2022-12-07T08:50:28;11.70;;;6.30;;
6926;SDS011;3503;50.07605000;8.86719200;2022-12-07T09:05:31;12.00;;;6.10;;
6926;SDS011;3503;50.07605000;8.86719200;2022-12-07T09:20:34;11.90;;;5.87;;
6926;SDS011;3503;50.07605000;8.86719200;2022-12-07T09:35:38;14.00;;;6.30;;
6926;SDS011;3503;50.07605000;8.86719200;2022-12-07T09:50:40;11.87;;;5.77;;
6926;SDS011;3503;50.07605000;8.86719200;2022-12-07T10:05:44;11.33;;;5.13;;
6926;SDS011;3503;50.07605000;8.86719200;2022-12-07T10:20:48;10.60;;;5.20;;
6926;SDS011;3503;50.07605000;8.86719200;2022-12-07T10:35:51;12.23;;;4.93;;
6926;SDS011;3503;50.07605000;8.86719200;2022-12-07T10:50:56;9.23;;;3.93;;
6926;SDS011;3503;50.07605000;8.86719200;2022-12-07T11:06:09;9.63;;;5.00;;
6926;SDS011;3503;50.07605000;8.86719200;2022-12-07T11:21:18;5.20;;;2.87;;
6926;SDS011;3503;50.07605000;8.86719200;2022-12-07T11:36:29;4.50;;;1.73;;
6926;SDS011;3503;50.07605000;8.86719200;2022-12-07T11:51:36;5.90;;;1.83;;
6926;SDS011;3503;50.07605000;8.86719200;2022-12-07T12:06:41;5.83;;;2.40;;
6926;SDS011;3503;50.07605000;8.86719200;2022-12-07T12:21:46;13.70;;;4.90;;
6926;SDS011;3503;50.07605000;8.86719200;2022-12-07T12:36:50;7.93;;;3.37;;
6926;SDS011;3503;50.07605000;8.86719200;2022-12-07T12:51:54;6.40;;;3.17;;
6926;SDS011;3503;50.07605000;8.86719200;2022-12-07T13:06:57;7.70;;;2.90;;
6926;SDS011;3503;50.07605000;8.86719200;2022-12-07T13:22:00;10.33;;;4.27;;
6926;SDS011;3503;50.07605000;8.86719200;2022-12-07T13:37:10;5.50;;;2.40;;
6926;SDS011;3503;50.07605000;8.86719200;2022-12-07T13:52:17;3.87;;;1.30;;
6926;SDS011;3503;50.07605000;8.86719200;2022-12-07T14:07:23;2.83;;;1.20;;
6926;SDS011;3503;50.07605000;8.86719200;2022-12-07T14:22:30;7.60;;;2.30;;
6926;SDS011;3503;50.07605000;8.86719200;2022-12-07T14:37:36;5.67;;;1.73;;
6926;SDS011;3503;50.07605000;8.86719200;2022-12-07T14:52:40;2.73;;;1.27;;
6926;SDS011;3503;50.07605000;8.86719200;2022-12-07T15:07:44;2.60;;;1.10;;
6926;SDS011;3503;50.07605000;8.86719200;2022-12-07T15:22:47;2.47;;;1.13;;
6926;SDS011;3503;50.07605000;8.86719200;2022-12-07T15:37:53;3.03;;;1.37;;
6926;SDS011;3503;50.07605000;8.86719200;2022-12-07T15:52:56;2.77;;;1.50;;
6926;SDS011;3503;50.07605000;8.86719200;2022-12-07T16:07:59;4.10;;;1.80;;
6926;SDS011;3503;50.07605000;8.86719200;2022-12-07T16:23:02;3.50;;;1.90;;
6926;SDS011;3503;50.07605000;8.86719200;2022-12-07T16:38:04;13.77;;;3.10;;
6926;SDS011;3503;50.07605000;8.86719200;2022-12-07T16:53:07;6.20;;;3.03;;
6926;SDS011;3503;50.07605000;8.86719200;2022-12-07T17:08:10;5.00;;;2.33;;
6926;SDS011;3503;50.07605000;8.86719200;2022-12-07T17:23:14;6.50;;;2.47;;
6926;SDS011;3503;50.07605000;8.86719200;2022-12-07T17:38:17;10.97;;;2.13;;
6926;SDS011;3503;50.07605000;8.86719200;2022-12-07T17:53:20;4.17;;;1.90;;
6926;SDS011;3503;50.07605000;8.86719200;2022-12-07T18:08:22;6.00;;;2.20;;
6926;SDS011;3503;50.07605000;8.86719200;2022-12-07T18:23:26;4.80;;;2.43;;
6926;SDS011;3503;50.07605000;8.86719200;2022-12-07T18:38:29;6.87;;;2.87;;
6926;SDS011;3503;50.07605000;8.86719200;2022-12-07T18:53:32;7.20;;;2.53;;
6926;SDS011;3503;50.07605000;8.86719200;2022-12-07T19:08:35;5.00;;;2.63;;
6926;SDS011;3503;50.07605000;8.86719200;2022-12-07T19:23:38;4.63;;;1.93;;
6926;SDS011;3503;50.07605000;8.86719200;2022-12-07T19:38:41;5.90;;;3.07;;
6926;SDS011;3503;50.07605000;8.86719200;2022-12-07T19:53:45;11.20;;;4.20;;
6926;SDS011;3503;50.07605000;8.86719200;2022-12-07T20:08:58;4.53;;;2.30;;
6926;SDS011;3503;50.07605000;8.86719200;2022-12-07T20:24:02;7.70;;;4.23;;
6926;SDS011;3503;50.07605000;8.86719200;2022-12-07T20:39:06;12.10;;;3.13;;
6926;SDS011;3503;50.07605000;8.86719200;2022-12-07T20:54:10;7.93;;;3.37;;
6926;SDS011;3503;50.07605000;8.86719200;2022-12-07T21:09:13;13.43;;;3.87;;
6926;SDS011;3503;50.07605000;8.86719200;2022-12-07T21:24:16;12.03;;;3.87;;
6926;SDS011;3503;50.07605000;8.86719200;2022-12-07T21:39:19;13.10;;;5.37;;
6926;SDS011;3503;50.07605000;8.86719200;2022-12-07T21:54:21;14.40;;;5.60;;
6926;SDS011;3503;50.07605000;8.86719200;2022-12-07T22:09:24;16.40;;;5.40;;
6926;SDS011;3503;50.07605000;8.86719200;2022-12-07T22:24:28;12.70;;;5.97;;
6926;SDS011;3503;50.07605000;8.86719200;2022-12-07T22:39:30;10.00;;;5.77;;
6926;SDS011;3503;50.07605000;8.86719200;2022-12-07T22:54:33;10.93;;;6.07;;
6926;SDS011;3503;50.07605000;8.86719200;2022-12-07T23:09:36;20.27;;;6.73;;
6926;SDS011;3503;50.07605000;8.86719200;2022-12-07T23:24:39;14.63;;;6.60;;
6926;SDS011;3503;50.07605000;8.86719200;2022-12-07T23:39:42;16.10;;;7.10;;
6926;SDS011;3503;50.07605000;8.86719200;2022-12-07T23:54:45;13.60;;;7.40;;
